createdAt,value
2017-09-10T00:00:29.246Z,8.57
2017-09-10T00:02:57.529Z,18.73
2017-09-10T00:05:25.814Z,14.27
2017-09-10T00:07:54.107Z,14.00
2017-09-10T00:10:22.379Z,11.90
2017-09-10T00:12:50.650Z,16.47
2017-09-10T00:15:18.886Z,14.57
2017-09-10T00:17:47.916Z,13.23
2017-09-10T00:20:16.181Z,8.33
2017-09-10T00:22:44.428Z,15.03
2017-09-10T00:25:12.696Z,11.57
2017-09-10T00:27:41.859Z,11.47
2017-09-10T00:30:10.102Z,13.80
2017-09-10T00:32:39.150Z,11.23
2017-09-10T00:35:07.439Z,9.70
2017-09-10T00:37:35.744Z,11.63
2017-09-10T00:40:04.785Z,8.77
2017-09-10T00:42:33.057Z,8.00
2017-09-10T00:45:01.347Z,11.27
2017-09-10T00:47:29.644Z,13.30
2017-09-10T00:49:57.893Z,9.87
2017-09-10T00:52:26.177Z,22.73
2017-09-10T00:54:54.449Z,14.80
2017-09-10T00:57:22.792Z,12.30
2017-09-10T00:59:51.056Z,17.40
2017-09-10T01:02:20.113Z,10.93
2017-09-10T01:04:48.385Z,18.87
2017-09-10T01:07:16.629Z,17.70
2017-09-10T01:09:44.935Z,14.03
2017-09-10T01:12:13.218Z,18.73
2017-09-10T01:14:41.587Z,18.97
2017-09-10T01:17:10.803Z,17.63
2017-09-10T01:19:39.192Z,26.57
2017-09-10T01:22:07.491Z,20.50
2017-09-10T01:24:36.562Z,15.70
2017-09-10T01:27:04.877Z,21.40
2017-09-10T01:29:33.131Z,12.17
2017-09-10T01:32:01.392Z,13.67
2017-09-10T01:34:29.656Z,23.43
2017-09-10T01:36:58.770Z,20.23
2017-09-10T01:39:27.056Z,16.07
2017-09-10T01:41:55.323Z,15.30
2017-09-10T01:44:23.595Z,18.57
2017-09-10T01:46:51.858Z,19.27
2017-09-10T01:49:20.103Z,21.30
2017-09-10T01:51:48.392Z,15.10
2017-09-10T01:54:16.685Z,13.67
2017-09-10T01:56:44.945Z,16.17
2017-09-10T01:59:13.212Z,17.30
2017-09-10T02:01:42.235Z,17.20
2017-09-10T02:04:10.517Z,15.50
2017-09-10T02:06:38.797Z,14.20
2017-09-10T02:09:07.864Z,15.63
2017-09-10T02:11:36.177Z,16.63
2017-09-10T02:14:04.442Z,17.13
2017-09-10T02:16:32.699Z,20.00
2017-09-10T02:19:00.955Z,19.60
2017-09-10T02:21:29.205Z,22.10
2017-09-10T02:23:57.457Z,26.27
2017-09-10T02:26:25.702Z,16.00
2017-09-10T02:28:53.968Z,15.87
2017-09-10T02:31:23.004Z,17.23
2017-09-10T02:33:51.231Z,16.17
2017-09-10T02:36:20.277Z,18.87
2017-09-10T02:38:49.310Z,17.53
2017-09-10T02:41:17.567Z,20.10
2017-09-10T02:43:46.594Z,15.50
2017-09-10T02:46:14.870Z,16.20
2017-09-10T02:48:43.105Z,13.73
2017-09-10T02:51:12.098Z,16.53
2017-09-10T02:53:40.347Z,13.20
2017-09-10T02:56:08.606Z,14.40
2017-09-10T02:58:37.629Z,16.53
2017-09-10T03:01:05.884Z,16.20
2017-09-10T03:03:34.912Z,16.47
2017-09-10T03:06:03.183Z,17.60
2017-09-10T03:08:31.451Z,17.17
2017-09-10T03:10:59.729Z,24.37
2017-09-10T03:13:27.966Z,19.10
2017-09-10T03:15:56.267Z,16.03
2017-09-10T03:18:25.267Z,18.10
2017-09-10T03:20:53.575Z,19.13
2017-09-10T03:23:21.827Z,16.33
2017-09-10T03:25:50.053Z,18.63
2017-09-10T03:28:18.350Z,18.23
2017-09-10T03:30:47.130Z,27.73
2017-09-10T03:33:15.398Z,32.83
2017-09-10T03:35:43.658Z,18.70
2017-09-10T03:38:11.914Z,22.10
2017-09-10T03:40:40.173Z,19.30
2017-09-10T03:43:08.424Z,21.03
2017-09-10T03:45:37.473Z,18.50
2017-09-10T03:48:06.477Z,23.10
2017-09-10T03:50:34.751Z,23.10
2017-09-10T03:53:03.796Z,17.03
2017-09-10T03:55:32.056Z,20.53
2017-09-10T03:58:01.106Z,18.43
2017-09-10T04:00:29.349Z,26.40
2017-09-10T04:02:58.355Z,22.30
2017-09-10T04:05:26.699Z,24.53
2017-09-10T04:07:54.955Z,19.63
2017-09-10T04:10:24.007Z,20.93
2017-09-10T04:12:52.649Z,24.33
2017-09-10T04:15:20.919Z,20.77
2017-09-10T04:17:49.149Z,18.80
2017-09-10T04:20:17.398Z,26.73
2017-09-10T04:22:45.649Z,19.20
2017-09-10T04:25:13.900Z,23.93
2017-09-10T04:27:42.146Z,17.73
2017-09-10T04:30:11.166Z,21.80
2017-09-10T04:32:39.424Z,19.97
2017-09-10T04:35:08.431Z,18.30
2017-09-10T04:37:36.666Z,21.07
2017-09-10T04:40:05.716Z,25.70
2017-09-10T04:42:33.963Z,16.73
2017-09-10T04:45:02.215Z,17.23
2017-09-10T04:47:30.443Z,29.23
2017-09-10T04:49:58.666Z,43.87
2017-09-10T04:52:27.712Z,19.50
2017-09-10T04:54:55.951Z,24.07
2017-09-10T04:57:24.245Z,27.23
2017-09-10T04:59:53.222Z,34.10
2017-09-10T05:02:22.270Z,21.73
2017-09-10T05:04:51.312Z,20.00
2017-09-10T05:07:20.353Z,27.20
2017-09-10T05:09:48.846Z,24.10
2017-09-10T05:12:17.143Z,27.77
2017-09-10T05:14:45.409Z,29.87
2017-09-10T05:17:13.673Z,20.50
2017-09-10T05:19:41.962Z,25.93
2017-09-10T05:22:10.966Z,17.70
2017-09-10T05:24:39.214Z,20.87
2017-09-10T05:27:08.279Z,19.23
2017-09-10T05:29:37.334Z,25.43
2017-09-10T05:32:05.579Z,19.10
2017-09-10T05:34:33.828Z,19.77
2017-09-10T05:37:02.849Z,27.47
2017-09-10T05:39:31.124Z,23.77
2017-09-10T05:41:59.389Z,19.50
2017-09-10T05:44:27.715Z,31.53
2017-09-10T05:46:55.987Z,24.10
2017-09-10T05:49:24.243Z,20.30
2017-09-10T05:51:52.519Z,26.80
2017-09-10T05:54:20.774Z,20.23
2017-09-10T05:56:49.043Z,16.80
2017-09-10T05:59:17.300Z,14.60
2017-09-10T06:01:45.560Z,20.97
2017-09-10T06:04:13.817Z,17.67
2017-09-10T06:06:42.091Z,20.50
2017-09-10T06:09:10.352Z,19.93
2017-09-10T06:11:38.621Z,20.60
2017-09-10T06:14:06.880Z,22.33
2017-09-10T06:16:35.936Z,18.83
2017-09-10T06:19:04.223Z,19.70
2017-09-10T06:21:32.479Z,25.90
2017-09-10T06:24:00.733Z,22.97
2017-09-10T06:26:29.015Z,17.50
2017-09-10T06:28:57.271Z,30.43
2017-09-10T06:31:25.548Z,20.00
2017-09-10T06:33:54.615Z,27.00
2017-09-10T06:36:22.887Z,25.30
2017-09-10T06:38:51.126Z,17.30
2017-09-10T06:41:20.160Z,24.60
2017-09-10T06:43:48.417Z,25.33
2017-09-10T06:46:16.684Z,24.60
2017-09-10T06:48:44.947Z,17.57
2017-09-10T06:51:13.238Z,23.67
2017-09-10T06:53:41.492Z,21.53
2017-09-10T06:56:09.767Z,19.77
2017-09-10T06:58:38.038Z,19.73
2017-09-10T07:01:06.290Z,23.90
2017-09-10T07:03:35.326Z,19.70
2017-09-10T07:06:03.593Z,24.47
2017-09-10T07:08:31.883Z,23.83
2017-09-10T07:11:00.136Z,23.60
2017-09-10T07:13:28.392Z,17.00
2017-09-10T07:15:57.461Z,30.47
2017-09-10T07:18:25.722Z,18.50
2017-09-10T07:20:53.997Z,15.77
2017-09-10T07:23:22.263Z,16.90
2017-09-10T07:25:50.527Z,21.40
2017-09-10T07:28:18.812Z,15.63
2017-09-10T07:30:47.026Z,15.77
2017-09-10T07:33:15.276Z,16.27
2017-09-10T07:35:43.535Z,18.80
2017-09-10T07:38:11.803Z,14.63
2017-09-10T07:40:40.061Z,14.20
2017-09-10T07:43:08.356Z,14.80
2017-09-10T07:45:36.635Z,17.00
2017-09-10T07:48:04.931Z,16.03
2017-09-10T07:50:33.198Z,19.17
2017-09-10T07:53:01.468Z,15.20
2017-09-10T07:55:29.747Z,16.10
2017-09-10T07:57:58.015Z,14.50
2017-09-10T08:00:27.045Z,16.17
2017-09-10T08:02:55.332Z,14.83
2017-09-10T08:05:24.364Z,12.23
2017-09-10T08:07:52.601Z,11.93
2017-09-10T08:10:20.861Z,11.10
2017-09-10T08:12:49.153Z,9.50
2017-09-10T08:15:17.396Z,9.97
2017-09-10T08:17:45.750Z,16.17
2017-09-10T08:20:13.998Z,11.93
2017-09-10T08:22:42.269Z,12.37
2017-09-10T08:25:10.516Z,9.70
2017-09-10T08:27:38.742Z,13.57
2017-09-10T08:30:06.999Z,16.23
2017-09-10T08:32:36.023Z,15.33
2017-09-10T08:35:04.324Z,23.60
2017-09-10T08:37:32.585Z,8.73
2017-09-10T08:40:01.655Z,10.80
2017-09-10T08:42:29.896Z,12.53
2017-09-10T08:44:58.150Z,12.83
2017-09-10T08:47:26.470Z,16.27
2017-09-10T08:49:54.782Z,11.53
2017-09-10T08:52:23.081Z,21.83
2017-09-10T08:54:52.138Z,6.93
2017-09-10T08:57:21.305Z,12.60
2017-09-10T08:59:49.530Z,11.57
2017-09-10T09:02:26.420Z,12.30
2017-09-10T09:04:57.599Z,6.73
2017-09-10T09:07:25.930Z,8.77
2017-09-10T09:09:54.180Z,13.37
2017-09-10T09:12:23.219Z,8.10
2017-09-10T09:14:51.476Z,7.37
2017-09-10T09:17:19.740Z,12.67
2017-09-10T09:19:48.008Z,14.87
2017-09-10T09:22:16.251Z,9.77
2017-09-10T09:24:44.521Z,9.83
2017-09-10T09:27:13.525Z,11.17
2017-09-10T09:29:41.799Z,8.23
2017-09-10T09:32:10.819Z,12.33
2017-09-10T09:34:39.038Z,13.10
2017-09-10T09:37:07.371Z,20.03
2017-09-10T09:39:35.627Z,8.00
2017-09-10T09:42:03.969Z,7.97
2017-09-10T09:44:32.238Z,8.87
2017-09-10T09:47:00.543Z,8.97
2017-09-10T09:49:28.790Z,8.83
2017-09-10T09:51:58.043Z,8.60
2017-09-10T09:54:26.647Z,8.37
2017-09-10T09:56:54.899Z,14.80
2017-09-10T09:59:23.986Z,12.27
2017-09-10T10:01:53.039Z,7.60
2017-09-10T10:04:21.325Z,9.63
2017-09-10T10:06:50.428Z,11.97
2017-09-10T10:09:18.690Z,6.67
2017-09-10T10:11:50.566Z,12.93
2017-09-10T10:14:34.453Z,9.30
2017-09-10T10:17:02.844Z,7.00
2017-09-10T10:19:31.094Z,10.10
2017-09-10T10:22:00.283Z,5.97
2017-09-10T10:24:28.615Z,3.20
2017-09-10T10:26:56.857Z,11.23
2017-09-10T10:29:25.894Z,10.20
2017-09-10T10:31:57.160Z,10.37
2017-09-10T10:34:25.411Z,8.80
2017-09-10T10:36:53.723Z,6.03
2017-09-10T10:39:21.993Z,7.00
2017-09-10T10:41:50.300Z,5.20
2017-09-10T10:44:18.551Z,5.60
2017-09-10T10:46:46.828Z,6.03
2017-09-10T10:49:15.100Z,12.13
2017-09-10T10:51:44.128Z,3.67
2017-09-10T10:54:13.164Z,5.30
2017-09-10T10:56:41.429Z,6.17
2017-09-10T10:59:09.683Z,3.40
2017-09-10T11:01:38.277Z,4.73
2017-09-10T11:04:06.542Z,6.03
2017-09-10T11:06:34.780Z,7.70
2017-09-10T11:09:03.125Z,6.40
2017-09-10T11:11:31.385Z,9.90
2017-09-10T11:13:59.659Z,2.70
2017-09-10T11:16:27.915Z,5.23
2017-09-10T11:18:56.967Z,5.00
2017-09-10T11:21:25.347Z,4.70
2017-09-10T11:23:53.638Z,2.80
2017-09-10T11:26:21.918Z,27.30
2017-09-10T11:28:50.259Z,6.70
2017-09-10T11:31:18.494Z,6.10
2017-09-10T11:33:46.756Z,4.67
2017-09-10T11:36:15.167Z,2.93
2017-09-10T11:38:43.423Z,3.90
2017-09-10T11:41:11.759Z,2.70
2017-09-10T11:43:40.147Z,4.60
2017-09-10T11:46:08.401Z,1.60
2017-09-10T11:48:36.655Z,4.83
2017-09-10T11:51:04.958Z,5.60
2017-09-10T11:53:33.249Z,2.97
2017-09-10T11:56:01.495Z,3.03
2017-09-10T11:58:30.548Z,5.77
2017-09-10T12:00:58.835Z,4.40
2017-09-10T12:03:27.098Z,4.57
2017-09-10T12:05:55.420Z,5.40
2017-09-10T12:08:23.715Z,1.90
2017-09-10T12:10:51.992Z,4.77
2017-09-10T12:13:20.266Z,6.00
2017-09-10T12:15:48.522Z,4.60
2017-09-10T12:18:16.811Z,3.87
2017-09-10T12:20:45.069Z,8.73
2017-09-10T12:23:13.421Z,6.43
2017-09-10T12:25:41.676Z,2.70
2017-09-10T12:28:09.929Z,5.67
2017-09-10T12:30:38.178Z,5.73
2017-09-10T12:33:07.297Z,4.00
2017-09-10T12:35:36.290Z,4.67
2017-09-10T12:38:04.555Z,5.23
2017-09-10T12:40:32.839Z,6.00
2017-09-10T12:43:01.896Z,2.93
2017-09-10T12:45:30.161Z,4.80
2017-09-10T12:47:58.424Z,3.47
2017-09-10T12:50:27.759Z,3.13
2017-09-10T12:52:56.047Z,4.43
2017-09-10T12:55:25.064Z,7.33
2017-09-10T12:57:53.344Z,8.30
2017-09-10T13:00:21.615Z,5.93
2017-09-10T13:02:49.906Z,7.43
2017-09-10T13:05:18.612Z,3.50
2017-09-10T13:07:46.866Z,6.10
2017-09-10T13:10:15.910Z,3.60
2017-09-10T13:12:44.153Z,5.43
2017-09-10T13:15:12.457Z,4.70
2017-09-10T13:17:40.735Z,8.20
2017-09-10T13:20:09.003Z,4.43
2017-09-10T13:22:37.223Z,1.80
2017-09-10T13:25:06.367Z,4.83
2017-09-10T13:27:34.598Z,2.97
2017-09-10T13:30:03.611Z,8.10
2017-09-10T13:32:31.915Z,8.57
2017-09-10T13:35:00.185Z,4.10
2017-09-10T13:37:28.485Z,3.50
2017-09-10T13:39:56.733Z,3.80
2017-09-10T13:42:25.770Z,3.23
2017-09-10T13:44:54.117Z,7.90
2017-09-10T13:47:22.425Z,6.50
2017-09-10T13:49:50.653Z,2.03
2017-09-10T13:52:18.963Z,6.47
2017-09-10T13:54:47.195Z,4.90
2017-09-10T13:57:16.247Z,7.93
2017-09-10T13:59:44.532Z,2.50
2017-09-10T14:02:13.533Z,3.40
2017-09-10T14:04:41.807Z,5.10
2017-09-10T14:07:10.097Z,3.63
2017-09-10T14:09:38.347Z,4.43
2017-09-10T14:12:06.589Z,5.20
2017-09-10T14:14:34.854Z,13.40
2017-09-10T14:17:03.909Z,6.10
2017-09-10T14:19:32.145Z,4.67
2017-09-10T14:22:00.398Z,5.60
2017-09-10T14:24:28.674Z,3.90
2017-09-10T14:26:56.942Z,1.97
2017-09-10T14:29:25.167Z,2.87
2017-09-10T14:31:53.425Z,5.90
2017-09-10T14:34:21.714Z,3.10
2017-09-10T14:36:49.980Z,3.43
2017-09-10T14:39:18.987Z,9.13
2017-09-10T14:41:47.288Z,5.47
2017-09-10T14:44:15.571Z,11.27
2017-09-10T14:46:43.812Z,4.70
2017-09-10T14:49:12.062Z,3.27
2017-09-10T14:51:41.086Z,5.57
2017-09-10T14:54:09.375Z,2.67
2017-09-10T14:56:37.751Z,3.37
2017-09-10T14:59:06.923Z,4.37
2017-09-10T15:01:35.515Z,3.10
2017-09-10T15:04:03.790Z,2.97
2017-09-10T15:06:32.095Z,3.40
2017-09-10T15:09:00.335Z,6.23
2017-09-10T15:11:28.607Z,1.70
2017-09-10T15:13:56.917Z,2.13
2017-09-10T15:16:25.230Z,11.33
2017-09-10T15:18:53.510Z,3.73
2017-09-10T15:21:22.571Z,2.77
2017-09-10T15:23:50.817Z,4.67
2017-09-10T15:26:19.116Z,4.33
2017-09-10T15:28:47.404Z,2.40
2017-09-10T15:31:16.447Z,3.60
2017-09-10T15:33:44.718Z,10.23
2017-09-10T15:36:13.032Z,4.53
2017-09-10T15:38:41.341Z,4.43
2017-09-10T15:41:09.622Z,3.50
2017-09-10T15:43:39.108Z,4.30
2017-09-10T15:46:07.379Z,4.50
2017-09-10T15:48:35.640Z,5.47
2017-09-10T15:51:03.930Z,5.37
2017-09-10T15:53:32.220Z,4.40
2017-09-10T15:56:00.553Z,6.60
2017-09-10T15:58:28.863Z,7.00
2017-09-10T16:00:57.098Z,9.20
2017-09-10T16:03:25.376Z,5.10
2017-09-10T16:05:53.632Z,6.13
2017-09-10T16:08:21.904Z,7.10
2017-09-10T16:10:50.198Z,4.33
2017-09-10T16:13:18.510Z,4.23
2017-09-10T16:15:46.786Z,4.00
2017-09-10T16:18:15.867Z,2.63
2017-09-10T16:20:44.126Z,9.03
2017-09-10T16:23:12.375Z,6.17
2017-09-10T16:25:40.633Z,7.93
2017-09-10T16:28:08.917Z,2.80
2017-09-10T16:30:37.170Z,5.17
2017-09-10T16:33:05.525Z,12.30
2017-09-10T16:35:33.774Z,6.87
2017-09-10T16:38:02.091Z,7.90
2017-09-10T16:40:30.337Z,3.00
2017-09-10T16:43:00.054Z,3.97
2017-09-10T16:45:28.355Z,7.20
2017-09-10T16:47:57.280Z,2.70
2017-09-10T16:50:25.563Z,3.90
2017-09-10T16:52:53.865Z,4.93
2017-09-10T16:55:22.916Z,3.20
2017-09-10T16:57:51.174Z,4.30
2017-09-10T17:00:19.564Z,7.63
2017-09-10T17:02:48.653Z,5.23
2017-09-10T17:05:16.933Z,6.07
2017-09-10T17:07:45.198Z,4.30
2017-09-10T17:10:13.543Z,7.23
2017-09-10T17:12:42.622Z,3.63
2017-09-10T17:15:10.867Z,4.17
2017-09-10T17:17:39.149Z,6.50
2017-09-10T17:20:08.250Z,6.17
2017-09-10T17:22:37.264Z,7.17
2017-09-10T17:25:05.545Z,6.20
2017-09-10T17:27:34.723Z,4.73
2017-09-10T17:30:03.041Z,3.40
2017-09-10T17:32:32.087Z,6.93
2017-09-10T17:35:02.125Z,5.23
2017-09-10T17:37:30.490Z,7.50
2017-09-10T17:39:59.008Z,4.30
2017-09-10T17:42:27.289Z,5.80
2017-09-10T17:44:55.549Z,3.90
2017-09-10T17:47:23.832Z,7.60
2017-09-10T17:49:52.085Z,4.17
2017-09-10T17:52:20.448Z,7.97
2017-09-10T17:54:48.735Z,14.20
2017-09-10T17:57:17.000Z,5.23
2017-09-10T17:59:45.258Z,7.43
2017-09-10T18:02:13.554Z,10.90
2017-09-10T18:04:41.836Z,7.90
2017-09-10T18:07:10.124Z,7.50
2017-09-10T18:09:39.182Z,10.30
2017-09-10T18:12:07.472Z,15.53
2017-09-10T18:14:35.744Z,7.90
2017-09-10T18:17:04.211Z,4.33
2017-09-10T18:19:33.217Z,7.97
2017-09-10T18:22:01.473Z,4.70
2017-09-10T18:24:29.782Z,5.47
2017-09-10T18:26:58.096Z,3.00
2017-09-10T18:29:26.386Z,7.63
2017-09-10T18:31:54.698Z,7.33
2017-09-10T18:34:22.960Z,8.43
2017-09-10T18:36:51.945Z,6.40
2017-09-10T18:39:20.691Z,6.47
2017-09-10T18:41:48.975Z,7.63
2017-09-10T18:44:17.260Z,10.23
2017-09-10T18:46:47.182Z,5.63
2017-09-10T18:49:15.589Z,9.13
2017-09-10T18:51:43.861Z,6.10
2017-09-10T18:54:12.187Z,16.57
2017-09-10T18:56:40.506Z,6.70
2017-09-10T18:59:09.728Z,6.63
2017-09-10T19:01:38.120Z,6.77
2017-09-10T19:04:08.038Z,7.83
2017-09-10T19:06:36.685Z,6.63
2017-09-10T19:09:05.152Z,5.23
2017-09-10T19:11:34.277Z,5.77
2017-09-10T19:14:03.345Z,8.17
2017-09-10T19:16:32.504Z,7.37
2017-09-10T19:19:00.817Z,5.50
2017-09-10T19:21:29.109Z,11.70
2017-09-10T19:23:57.624Z,7.00
2017-09-10T19:26:25.911Z,11.43
2017-09-10T19:28:54.464Z,6.80
2017-09-10T19:31:23.424Z,10.30
2017-09-10T19:33:51.773Z,6.90
2017-09-10T19:36:20.257Z,10.10
2017-09-10T19:38:48.718Z,6.90
2017-09-10T19:41:17.017Z,6.53
2017-09-10T19:43:45.553Z,4.30
2017-09-10T19:46:15.495Z,11.50
2017-09-10T19:48:43.839Z,15.00
2017-09-10T19:51:12.109Z,9.40
2017-09-10T19:53:40.703Z,11.60
2017-09-10T19:56:09.185Z,9.40
2017-09-10T19:58:38.809Z,12.90
2017-09-10T20:01:07.949Z,11.50
2017-09-10T20:03:36.432Z,13.10
2017-09-10T20:06:04.694Z,14.77
2017-09-10T20:08:32.978Z,9.60
2017-09-10T20:11:01.843Z,7.43
2017-09-10T20:13:32.017Z,9.30
2017-09-10T20:16:00.320Z,21.30
2017-09-10T20:18:28.764Z,5.73
2017-09-10T20:20:57.973Z,39.40
2017-09-10T20:23:26.345Z,9.20
2017-09-10T20:25:55.552Z,5.73
2017-09-10T20:28:24.641Z,6.47
2017-09-10T20:30:53.111Z,9.50
2017-09-10T20:33:21.424Z,5.50
2017-09-10T20:35:49.675Z,3.23
2017-09-10T20:38:17.916Z,9.60
2017-09-10T20:40:46.701Z,10.10
2017-09-10T20:43:15.008Z,14.07
2017-09-10T20:45:43.240Z,6.77
2017-09-10T20:48:11.530Z,8.43
2017-09-10T20:50:39.816Z,4.33
2017-09-10T20:53:08.080Z,7.23
2017-09-10T20:55:36.314Z,5.13
2017-09-10T20:58:04.620Z,5.43
2017-09-10T21:00:33.638Z,3.57
2017-09-10T21:03:01.933Z,11.50
2017-09-10T21:05:30.216Z,6.30
2017-09-10T21:07:58.460Z,7.70
2017-09-10T21:10:26.723Z,4.23
2017-09-10T21:12:54.991Z,12.03
2017-09-10T21:15:23.258Z,16.73
2017-09-10T21:17:51.528Z,5.73
2017-09-10T21:20:19.764Z,8.30
2017-09-10T21:22:48.038Z,7.13
2017-09-10T21:25:16.290Z,4.63
2017-09-10T21:27:44.545Z,3.50
2017-09-10T21:30:13.588Z,4.73
2017-09-10T21:32:41.843Z,14.37
2017-09-10T21:35:10.575Z,4.77
2017-09-10T21:37:38.808Z,2.93
2017-09-10T21:40:07.086Z,5.87
2017-09-10T21:42:35.350Z,6.43
2017-09-10T21:45:03.581Z,5.07
2017-09-10T21:47:31.853Z,4.30
2017-09-10T21:50:00.102Z,6.47
2017-09-10T21:52:29.375Z,4.50
2017-09-10T21:54:58.414Z,8.30
2017-09-10T21:57:26.644Z,8.53
2017-09-10T21:59:54.951Z,5.60
2017-09-10T22:02:23.941Z,2.23
2017-09-10T22:04:52.202Z,6.63
2017-09-10T22:07:20.436Z,5.77
2017-09-10T22:09:48.659Z,4.43
2017-09-10T22:12:16.914Z,8.20
2017-09-10T22:14:46.418Z,2.00
2017-09-10T22:17:16.159Z,6.93
2017-09-10T22:19:44.477Z,6.27
2017-09-10T22:22:12.706Z,4.37
2017-09-10T22:24:41.743Z,2.10
2017-09-10T22:27:10.463Z,2.37
2017-09-10T22:29:38.755Z,4.73
2017-09-10T22:32:06.990Z,4.70
2017-09-10T22:34:36.013Z,3.00
2017-09-10T22:37:04.222Z,8.20
2017-09-10T22:39:32.475Z,5.53
2017-09-10T22:42:01.508Z,5.10
2017-09-10T22:44:29.747Z,6.43
2017-09-10T22:46:58.778Z,17.83
2017-09-10T22:49:27.044Z,3.37
2017-09-10T22:51:55.324Z,4.20
2017-09-10T22:54:23.597Z,3.97
2017-09-10T22:56:51.824Z,3.70
2017-09-10T22:59:20.122Z,2.63
2017-09-10T23:01:48.368Z,3.77
2017-09-10T23:04:16.621Z,2.77
2017-09-10T23:06:44.930Z,3.67
2017-09-10T23:09:13.180Z,5.10
2017-09-10T23:11:41.408Z,5.63
2017-09-10T23:14:10.441Z,4.07
2017-09-10T23:16:38.694Z,6.10
2017-09-10T23:19:07.734Z,4.20
2017-09-10T23:21:35.983Z,1.80
2017-09-10T23:24:04.222Z,5.77
2017-09-10T23:26:32.456Z,6.17
2017-09-10T23:29:00.727Z,5.13
2017-09-10T23:31:28.943Z,3.53
2017-09-10T23:33:57.207Z,6.37
2017-09-10T23:36:25.451Z,2.60
2017-09-10T23:38:53.707Z,3.57
2017-09-10T23:41:21.971Z,3.27
2017-09-10T23:43:50.234Z,6.30
2017-09-10T23:46:18.482Z,12.43
2017-09-10T23:48:46.720Z,1.60
2017-09-10T23:51:14.966Z,2.20
2017-09-10T23:53:43.229Z,3.67
2017-09-10T23:56:11.467Z,7.30
2017-09-10T23:58:39.727Z,5.70
